sensor_id;sensor_type;location;lat;lon;timestamp;temperature;humidity
10411;DHT22;5251;52.112;8.606;2023-11-19T00:01:26;11.60;99.90
10411;DHT22;5251;52.112;8.606;2023-11-19T00:03:52;11.60;99.90
10411;DHT22;5251;52.112;8.606;2023-11-19T00:06:18;11.70;99.90
10411;DHT22;5251;52.112;8.606;2023-11-19T00:08:44;11.70;99.90
10411;DHT22;5251;52.112;8.606;2023-11-19T00:11:10;11.80;99.90
10411;DHT22;5251;52.112;8.606;2023-11-19T00:13:36;11.80;99.90
10411;DHT22;5251;52.112;8.606;2023-11-19T00:16:02;11.80;99.90
10411;DHT22;5251;52.112;8.606;2023-11-19T00:18:29;11.80;99.90
10411;DHT22;5251;52.112;8.606;2023-11-19T00:20:55;11.80;99.90
10411;DHT22;5251;52.112;8.606;2023-11-19T00:23:20;11.90;99.90
10411;DHT22;5251;52.112;8.606;2023-11-19T00:25:46;11.80;99.90
10411;DHT22;5251;52.112;8.606;2023-11-19T00:28:13;11.80;99.90
10411;DHT22;5251;52.112;8.606;2023-11-19T00:30:38;11.90;99.90
10411;DHT22;5251;52.112;8.606;2023-11-19T00:33:07;12.00;99.90
10411;DHT22;5251;52.112;8.606;2023-11-19T00:35:33;12.00;99.90
10411;DHT22;5251;52.112;8.606;2023-11-19T00:37:58;12.00;99.90
10411;DHT22;5251;52.112;8.606;2023-11-19T00:40:24;12.00;99.90
10411;DHT22;5251;52.112;8.606;2023-11-19T00:42:49;12.00;99.90
10411;DHT22;5251;52.112;8.606;2023-11-19T00:45:15;12.10;99.90
10411;DHT22;5251;52.112;8.606;2023-11-19T00:47:41;12.10;99.90
10411;DHT22;5251;52.112;8.606;2023-11-19T00:50:07;12.10;99.90
10411;DHT22;5251;52.112;8.606;2023-11-19T00:52:35;12.10;99.90
10411;DHT22;5251;52.112;8.606;2023-11-19T00:55:01;12.20;99.90
10411;DHT22;5251;52.112;8.606;2023-11-19T00:57:26;12.20;99.90
10411;DHT22;5251;52.112;8.606;2023-11-19T00:59:52;12.20;99.90
10411;DHT22;5251;52.112;8.606;2023-11-19T01:02:18;12.30;99.90
10411;DHT22;5251;52.112;8.606;2023-11-19T01:04:43;12.30;99.90
10411;DHT22;5251;52.112;8.606;2023-11-19T01:07:09;12.30;99.90
10411;DHT22;5251;52.112;8.606;2023-11-19T01:09:38;12.20;99.90
10411;DHT22;5251;52.112;8.606;2023-11-19T01:12:04;12.30;99.90
10411;DHT22;5251;52.112;8.606;2023-11-19T01:14:30;12.30;99.90
10411;DHT22;5251;52.112;8.606;2023-11-19T01:16:56;12.30;99.90
10411;DHT22;5251;52.112;8.606;2023-11-19T01:19:22;12.30;99.90
10411;DHT22;5251;52.112;8.606;2023-11-19T01:21:49;12.30;99.90
10411;DHT22;5251;52.112;8.606;2023-11-19T01:24:14;12.40;99.90
10411;DHT22;5251;52.112;8.606;2023-11-19T01:26:41;12.40;99.90
10411;DHT22;5251;52.112;8.606;2023-11-19T01:29:16;12.30;99.90
10411;DHT22;5251;52.112;8.606;2023-11-19T01:31:42;12.50;99.90
10411;DHT22;5251;52.112;8.606;2023-11-19T01:34:08;12.50;99.90
10411;DHT22;5251;52.112;8.606;2023-11-19T01:36:34;12.50;99.90
10411;DHT22;5251;52.112;8.606;2023-11-19T01:39:00;12.60;99.90
10411;DHT22;5251;52.112;8.606;2023-11-19T01:41:25;12.60;99.90
10411;DHT22;5251;52.112;8.606;2023-11-19T01:43:51;12.60;99.90
10411;DHT22;5251;52.112;8.606;2023-11-19T01:46:17;12.60;99.90
10411;DHT22;5251;52.112;8.606;2023-11-19T01:48:44;12.60;99.90
10411;DHT22;5251;52.112;8.606;2023-11-19T01:51:12;12.70;99.90
10411;DHT22;5251;52.112;8.606;2023-11-19T01:53:38;12.60;99.90
10411;DHT22;5251;52.112;8.606;2023-11-19T01:56:06;12.70;99.90
10411;DHT22;5251;52.112;8.606;2023-11-19T01:58:35;12.70;99.90
10411;DHT22;5251;52.112;8.606;2023-11-19T02:01:01;12.80;99.90
10411;DHT22;5251;52.112;8.606;2023-11-19T02:03:31;12.80;99.90
10411;DHT22;5251;52.112;8.606;2023-11-19T02:05:58;12.80;99.90
10411;DHT22;5251;52.112;8.606;2023-11-19T02:08:24;12.80;99.90
10411;DHT22;5251;52.112;8.606;2023-11-19T02:10:49;12.90;99.90
10411;DHT22;5251;52.112;8.606;2023-11-19T02:13:15;12.90;99.90
10411;DHT22;5251;52.112;8.606;2023-11-19T02:15:41;13.00;99.90
10411;DHT22;5251;52.112;8.606;2023-11-19T02:18:26;13.00;99.90
10411;DHT22;5251;52.112;8.606;2023-11-19T02:20:56;13.00;99.90
10411;DHT22;5251;52.112;8.606;2023-11-19T02:23:23;13.00;99.90
10411;DHT22;5251;52.112;8.606;2023-11-19T02:28:36;13.10;99.90
10411;DHT22;5251;52.112;8.606;2023-11-19T02:31:02;13.10;99.90
10411;DHT22;5251;52.112;8.606;2023-11-19T02:33:30;13.10;99.90
10411;DHT22;5251;52.112;8.606;2023-11-19T02:35:55;13.10;99.90
10411;DHT22;5251;52.112;8.606;2023-11-19T02:38:21;13.10;99.90
10411;DHT22;5251;52.112;8.606;2023-11-19T02:40:47;13.20;99.90
10411;DHT22;5251;52.112;8.606;2023-11-19T02:43:13;13.20;99.90
10411;DHT22;5251;52.112;8.606;2023-11-19T02:45:38;13.20;99.90
10411;DHT22;5251;52.112;8.606;2023-11-19T02:48:04;13.20;99.90
10411;DHT22;5251;52.112;8.606;2023-11-19T02:50:32;13.30;99.90
10411;DHT22;5251;52.112;8.606;2023-11-19T02:52:57;13.40;99.90
10411;DHT22;5251;52.112;8.606;2023-11-19T02:55:23;13.40;99.90
10411;DHT22;5251;52.112;8.606;2023-11-19T02:57:50;13.40;99.90
10411;DHT22;5251;52.112;8.606;2023-11-19T03:00:17;13.50;99.90
10411;DHT22;5251;52.112;8.606;2023-11-19T03:02:44;13.50;99.90
10411;DHT22;5251;52.112;8.606;2023-11-19T03:05:12;13.60;99.90
10411;DHT22;5251;52.112;8.606;2023-11-19T03:07:43;13.60;99.90
10411;DHT22;5251;52.112;8.606;2023-11-19T03:10:10;13.60;99.90
10411;DHT22;5251;52.112;8.606;2023-11-19T03:12:39;13.60;99.90
10411;DHT22;5251;52.112;8.606;2023-11-19T03:15:05;13.70;99.90
10411;DHT22;5251;52.112;8.606;2023-11-19T03:17:31;13.70;99.90
10411;DHT22;5251;52.112;8.606;2023-11-19T03:19:56;13.70;99.90
10411;DHT22;5251;52.112;8.606;2023-11-19T03:22:22;13.80;99.90
10411;DHT22;5251;52.112;8.606;2023-11-19T03:24:51;13.80;99.90
10411;DHT22;5251;52.112;8.606;2023-11-19T03:27:16;13.80;99.90
10411;DHT22;5251;52.112;8.606;2023-11-19T03:29:42;13.80;99.90
10411;DHT22;5251;52.112;8.606;2023-11-19T03:32:08;13.90;99.90
10411;DHT22;5251;52.112;8.606;2023-11-19T03:34:34;13.90;99.90
10411;DHT22;5251;52.112;8.606;2023-11-19T03:36:59;14.00;99.90
10411;DHT22;5251;52.112;8.606;2023-11-19T03:39:25;14.00;99.90
10411;DHT22;5251;52.112;8.606;2023-11-19T03:41:52;14.00;99.90
10411;DHT22;5251;52.112;8.606;2023-11-19T03:44:17;14.10;99.90
10411;DHT22;5251;52.112;8.606;2023-11-19T03:46:44;14.10;99.90
10411;DHT22;5251;52.112;8.606;2023-11-19T03:49:10;14.10;99.90
10411;DHT22;5251;52.112;8.606;2023-11-19T03:51:35;14.10;99.90
10411;DHT22;5251;52.112;8.606;2023-11-19T03:54:01;14.10;99.90
10411;DHT22;5251;52.112;8.606;2023-11-19T03:56:26;14.20;99.90
10411;DHT22;5251;52.112;8.606;2023-11-19T03:58:56;14.20;99.90
10411;DHT22;5251;52.112;8.606;2023-11-19T04:01:22;14.30;99.90
10411;DHT22;5251;52.112;8.606;2023-11-19T04:03:47;14.30;99.90
10411;DHT22;5251;52.112;8.606;2023-11-19T04:06:13;14.30;99.90
10411;DHT22;5251;52.112;8.606;2023-11-19T04:08:38;14.30;99.90
10411;DHT22;5251;52.112;8.606;2023-11-19T04:11:04;14.40;99.90
10411;DHT22;5251;52.112;8.606;2023-11-19T04:13:30;14.40;99.90
10411;DHT22;5251;52.112;8.606;2023-11-19T04:15:56;14.40;99.90
10411;DHT22;5251;52.112;8.606;2023-11-19T04:18:21;14.50;99.90
10411;DHT22;5251;52.112;8.606;2023-11-19T04:20:47;14.50;99.90
10411;DHT22;5251;52.112;8.606;2023-11-19T04:23:12;14.40;99.90
10411;DHT22;5251;52.112;8.606;2023-11-19T04:25:38;14.40;99.90
10411;DHT22;5251;52.112;8.606;2023-11-19T04:28:03;14.50;99.90
10411;DHT22;5251;52.112;8.606;2023-11-19T04:30:29;14.50;99.90
10411;DHT22;5251;52.112;8.606;2023-11-19T04:32:57;14.50;99.90
10411;DHT22;5251;52.112;8.606;2023-11-19T04:35:23;14.50;99.90
10411;DHT22;5251;52.112;8.606;2023-11-19T04:37:49;14.50;99.90
10411;DHT22;5251;52.112;8.606;2023-11-19T04:40:14;14.60;99.90
10411;DHT22;5251;52.112;8.606;2023-11-19T04:42:40;14.60;99.90
10411;DHT22;5251;52.112;8.606;2023-11-19T04:45:06;14.60;99.90
10411;DHT22;5251;52.112;8.606;2023-11-19T04:47:33;14.70;99.90
10411;DHT22;5251;52.112;8.606;2023-11-19T04:49:58;14.70;99.90
10411;DHT22;5251;52.112;8.606;2023-11-19T04:52:24;14.60;99.90
10411;DHT22;5251;52.112;8.606;2023-11-19T04:54:50;14.70;99.90
10411;DHT22;5251;52.112;8.606;2023-11-19T04:57:15;14.70;99.90
10411;DHT22;5251;52.112;8.606;2023-11-19T04:59:41;14.70;99.90
10411;DHT22;5251;52.112;8.606;2023-11-19T05:02:08;14.70;99.90
10411;DHT22;5251;52.112;8.606;2023-11-19T05:04:34;14.70;99.90
10411;DHT22;5251;52.112;8.606;2023-11-19T05:06:59;14.60;99.90
10411;DHT22;5251;52.112;8.606;2023-11-19T05:09:25;14.70;99.90
10411;DHT22;5251;52.112;8.606;2023-11-19T05:11:50;14.70;99.90
10411;DHT22;5251;52.112;8.606;2023-11-19T05:14:16;14.70;99.90
10411;DHT22;5251;52.112;8.606;2023-11-19T05:16:42;14.70;99.90
10411;DHT22;5251;52.112;8.606;2023-11-19T05:19:08;14.70;99.90
10411;DHT22;5251;52.112;8.606;2023-11-19T05:21:34;14.70;99.90
10411;DHT22;5251;52.112;8.606;2023-11-19T05:24:02;14.70;99.90
10411;DHT22;5251;52.112;8.606;2023-11-19T05:26:30;14.70;99.90
10411;DHT22;5251;52.112;8.606;2023-11-19T05:28:55;14.70;99.90
10411;DHT22;5251;52.112;8.606;2023-11-19T05:31:21;14.60;99.90
10411;DHT22;5251;52.112;8.606;2023-11-19T05:33:46;14.60;99.90
10411;DHT22;5251;52.112;8.606;2023-11-19T05:36:12;14.60;99.90
10411;DHT22;5251;52.112;8.606;2023-11-19T05:38:38;14.60;99.90
10411;DHT22;5251;52.112;8.606;2023-11-19T05:41:04;14.50;99.90
10411;DHT22;5251;52.112;8.606;2023-11-19T05:43:30;14.50;99.90
10411;DHT22;5251;52.112;8.606;2023-11-19T05:45:56;14.50;99.90
10411;DHT22;5251;52.112;8.606;2023-11-19T05:48:21;14.40;99.90
10411;DHT22;5251;52.112;8.606;2023-11-19T05:50:48;14.50;99.90
10411;DHT22;5251;52.112;8.606;2023-11-19T05:53:15;14.50;99.90
10411;DHT22;5251;52.112;8.606;2023-11-19T05:55:41;14.40;99.90
10411;DHT22;5251;52.112;8.606;2023-11-19T05:58:22;14.40;99.90
10411;DHT22;5251;52.112;8.606;2023-11-19T06:00:48;14.40;99.90
10411;DHT22;5251;52.112;8.606;2023-11-19T06:03:16;14.40;99.90
10411;DHT22;5251;52.112;8.606;2023-11-19T06:05:44;14.40;99.90
10411;DHT22;5251;52.112;8.606;2023-11-19T06:08:10;14.40;99.90
10411;DHT22;5251;52.112;8.606;2023-11-19T06:10:38;14.40;99.90
10411;DHT22;5251;52.112;8.606;2023-11-19T06:13:04;14.30;99.90
10411;DHT22;5251;52.112;8.606;2023-11-19T06:15:30;14.30;99.90
10411;DHT22;5251;52.112;8.606;2023-11-19T06:17:58;14.20;99.90
10411;DHT22;5251;52.112;8.606;2023-11-19T06:20:25;14.20;99.90
10411;DHT22;5251;52.112;8.606;2023-11-19T06:22:50;14.20;99.90
10411;DHT22;5251;52.112;8.606;2023-11-19T06:25:16;14.20;99.90
10411;DHT22;5251;52.112;8.606;2023-11-19T06:27:42;14.10;99.90
10411;DHT22;5251;52.112;8.606;2023-11-19T06:30:08;14.10;99.90
10411;DHT22;5251;52.112;8.606;2023-11-19T06:32:34;14.10;99.90
10411;DHT22;5251;52.112;8.606;2023-11-19T06:34:59;14.10;99.90
10411;DHT22;5251;52.112;8.606;2023-11-19T06:37:25;14.00;99.90
10411;DHT22;5251;52.112;8.606;2023-11-19T06:39:50;14.00;99.90
10411;DHT22;5251;52.112;8.606;2023-11-19T06:42:16;14.00;99.90
10411;DHT22;5251;52.112;8.606;2023-11-19T06:44:42;13.90;99.90
10411;DHT22;5251;52.112;8.606;2023-11-19T06:47:08;13.90;99.90
10411;DHT22;5251;52.112;8.606;2023-11-19T06:49:33;13.90;99.90
10411;DHT22;5251;52.112;8.606;2023-11-19T06:51:59;13.90;99.90
10411;DHT22;5251;52.112;8.606;2023-11-19T06:54:25;13.90;99.90
10411;DHT22;5251;52.112;8.606;2023-11-19T06:56:50;13.80;99.90
10411;DHT22;5251;52.112;8.606;2023-11-19T06:59:16;13.80;99.90
10411;DHT22;5251;52.112;8.606;2023-11-19T07:01:42;13.80;99.90
10411;DHT22;5251;52.112;8.606;2023-11-19T07:04:13;13.80;99.90
10411;DHT22;5251;52.112;8.606;2023-11-19T07:06:39;13.80;99.90
10411;DHT22;5251;52.112;8.606;2023-11-19T07:09:06;13.80;99.90
10411;DHT22;5251;52.112;8.606;2023-11-19T07:11:39;13.80;99.90
10411;DHT22;5251;52.112;8.606;2023-11-19T07:14:05;13.70;99.90
10411;DHT22;5251;52.112;8.606;2023-11-19T07:16:34;13.70;99.90
10411;DHT22;5251;52.112;8.606;2023-11-19T07:19:03;13.70;99.90
10411;DHT22;5251;52.112;8.606;2023-11-19T07:21:28;13.60;99.90
10411;DHT22;5251;52.112;8.606;2023-11-19T07:23:55;13.70;99.90
10411;DHT22;5251;52.112;8.606;2023-11-19T07:26:21;13.70;99.90
10411;DHT22;5251;52.112;8.606;2023-11-19T07:28:47;13.70;99.90
10411;DHT22;5251;52.112;8.606;2023-11-19T07:31:13;13.70;99.90
10411;DHT22;5251;52.112;8.606;2023-11-19T07:33:39;13.80;99.90
10411;DHT22;5251;52.112;8.606;2023-11-19T07:36:08;13.80;99.90
10411;DHT22;5251;52.112;8.606;2023-11-19T07:38:34;13.80;99.90
10411;DHT22;5251;52.112;8.606;2023-11-19T07:40:59;13.90;99.90
10411;DHT22;5251;52.112;8.606;2023-11-19T07:43:25;13.90;99.90
10411;DHT22;5251;52.112;8.606;2023-11-19T07:45:51;14.00;99.90
10411;DHT22;5251;52.112;8.606;2023-11-19T07:48:16;14.00;99.90
10411;DHT22;5251;52.112;8.606;2023-11-19T07:50:48;14.00;99.90
10411;DHT22;5251;52.112;8.606;2023-11-19T07:53:18;14.00;99.90
10411;DHT22;5251;52.112;8.606;2023-11-19T07:55:44;14.10;99.90
10411;DHT22;5251;52.112;8.606;2023-11-19T07:58:10;14.10;99.90
10411;DHT22;5251;52.112;8.606;2023-11-19T08:00:36;14.10;99.90
10411;DHT22;5251;52.112;8.606;2023-11-19T08:03:03;14.10;99.90
10411;DHT22;5251;52.112;8.606;2023-11-19T08:05:28;14.10;99.90
10411;DHT22;5251;52.112;8.606;2023-11-19T08:07:54;14.10;99.90
10411;DHT22;5251;52.112;8.606;2023-11-19T08:10:20;14.10;99.90
10411;DHT22;5251;52.112;8.606;2023-11-19T08:12:45;14.10;99.90
10411;DHT22;5251;52.112;8.606;2023-11-19T08:15:11;14.20;99.90
10411;DHT22;5251;52.112;8.606;2023-11-19T08:17:37;14.20;99.90
10411;DHT22;5251;52.112;8.606;2023-11-19T08:20:03;14.20;99.90
10411;DHT22;5251;52.112;8.606;2023-11-19T08:22:30;14.20;99.90
10411;DHT22;5251;52.112;8.606;2023-11-19T08:24:56;14.10;99.90
10411;DHT22;5251;52.112;8.606;2023-11-19T08:27:22;14.20;99.90
10411;DHT22;5251;52.112;8.606;2023-11-19T08:29:54;14.20;99.90
10411;DHT22;5251;52.112;8.606;2023-11-19T08:32:22;14.30;99.90
10411;DHT22;5251;52.112;8.606;2023-11-19T08:34:48;14.30;99.90
10411;DHT22;5251;52.112;8.606;2023-11-19T08:37:13;14.30;99.90
10411;DHT22;5251;52.112;8.606;2023-11-19T08:39:39;14.30;99.90
10411;DHT22;5251;52.112;8.606;2023-11-19T08:42:06;14.40;99.90
10411;DHT22;5251;52.112;8.606;2023-11-19T08:44:32;14.40;99.90
10411;DHT22;5251;52.112;8.606;2023-11-19T08:46:57;14.40;99.90
10411;DHT22;5251;52.112;8.606;2023-11-19T08:49:23;14.40;99.90
10411;DHT22;5251;52.112;8.606;2023-11-19T08:51:49;14.50;99.90
10411;DHT22;5251;52.112;8.606;2023-11-19T08:54:14;14.50;99.90
10411;DHT22;5251;52.112;8.606;2023-11-19T08:56:40;14.60;99.90
10411;DHT22;5251;52.112;8.606;2023-11-19T08:59:05;14.60;99.90
10411;DHT22;5251;52.112;8.606;2023-11-19T09:01:31;14.70;99.90
10411;DHT22;5251;52.112;8.606;2023-11-19T09:03:56;14.60;99.90
10411;DHT22;5251;52.112;8.606;2023-11-19T09:06:23;14.70;99.90
10411;DHT22;5251;52.112;8.606;2023-11-19T09:08:48;14.70;99.90
10411;DHT22;5251;52.112;8.606;2023-11-19T09:11:14;14.70;99.90
10411;DHT22;5251;52.112;8.606;2023-11-19T09:13:39;14.70;99.90
10411;DHT22;5251;52.112;8.606;2023-11-19T09:16:05;14.70;99.90
10411;DHT22;5251;52.112;8.606;2023-11-19T09:18:31;14.80;99.90
10411;DHT22;5251;52.112;8.606;2023-11-19T09:21:00;14.80;99.90
10411;DHT22;5251;52.112;8.606;2023-11-19T09:23:26;14.80;99.90
10411;DHT22;5251;52.112;8.606;2023-11-19T09:25:53;14.80;99.90
10411;DHT22;5251;52.112;8.606;2023-11-19T09:28:18;14.90;99.90
10411;DHT22;5251;52.112;8.606;2023-11-19T09:30:44;14.90;99.90
10411;DHT22;5251;52.112;8.606;2023-11-19T09:33:10;14.90;99.90
10411;DHT22;5251;52.112;8.606;2023-11-19T09:35:35;15.00;99.90
10411;DHT22;5251;52.112;8.606;2023-11-19T09:38:01;15.00;99.90
10411;DHT22;5251;52.112;8.606;2023-11-19T09:40:27;15.00;99.90
10411;DHT22;5251;52.112;8.606;2023-11-19T09:42:54;15.10;99.90
10411;DHT22;5251;52.112;8.606;2023-11-19T09:45:21;15.10;99.90
10411;DHT22;5251;52.112;8.606;2023-11-19T09:47:47;15.10;99.90
10411;DHT22;5251;52.112;8.606;2023-11-19T09:50:16;15.10;99.90
10411;DHT22;5251;52.112;8.606;2023-11-19T09:52:43;15.10;99.90
10411;DHT22;5251;52.112;8.606;2023-11-19T09:55:09;15.10;99.90
10411;DHT22;5251;52.112;8.606;2023-11-19T09:57:35;15.10;99.90
10411;DHT22;5251;52.112;8.606;2023-11-19T10:00:03;15.10;99.90
10411;DHT22;5251;52.112;8.606;2023-11-19T10:02:31;15.00;99.90
10411;DHT22;5251;52.112;8.606;2023-11-19T10:04:59;15.00;99.90
10411;DHT22;5251;52.112;8.606;2023-11-19T10:07:25;15.00;99.90
10411;DHT22;5251;52.112;8.606;2023-11-19T10:09:50;15.00;99.90
10411;DHT22;5251;52.112;8.606;2023-11-19T10:12:16;15.00;99.90
10411;DHT22;5251;52.112;8.606;2023-11-19T10:14:43;15.00;99.90
10411;DHT22;5251;52.112;8.606;2023-11-19T10:17:09;15.00;99.90
10411;DHT22;5251;52.112;8.606;2023-11-19T10:19:35;15.00;99.90
10411;DHT22;5251;52.112;8.606;2023-11-19T10:22:10;15.10;99.90
10411;DHT22;5251;52.112;8.606;2023-11-19T10:24:36;15.10;99.90
10411;DHT22;5251;52.112;8.606;2023-11-19T10:27:07;15.10;99.90
10411;DHT22;5251;52.112;8.606;2023-11-19T10:29:36;15.10;99.90
10411;DHT22;5251;52.112;8.606;2023-11-19T10:32:03;15.20;99.90
10411;DHT22;5251;52.112;8.606;2023-11-19T10:34:28;15.20;99.90
10411;DHT22;5251;52.112;8.606;2023-11-19T10:36:55;15.20;99.90
10411;DHT22;5251;52.112;8.606;2023-11-19T10:39:21;15.30;99.90
10411;DHT22;5251;52.112;8.606;2023-11-19T10:41:47;15.30;99.90
10411;DHT22;5251;52.112;8.606;2023-11-19T10:44:12;15.30;99.90
10411;DHT22;5251;52.112;8.606;2023-11-19T10:46:55;15.40;99.90
10411;DHT22;5251;52.112;8.606;2023-11-19T10:49:21;15.40;99.90
10411;DHT22;5251;52.112;8.606;2023-11-19T10:51:46;15.40;99.90
10411;DHT22;5251;52.112;8.606;2023-11-19T10:54:15;15.40;99.90
10411;DHT22;5251;52.112;8.606;2023-11-19T10:56:44;15.50;99.90
10411;DHT22;5251;52.112;8.606;2023-11-19T10:59:14;15.50;99.90
10411;DHT22;5251;52.112;8.606;2023-11-19T11:01:45;15.50;99.90
10411;DHT22;5251;52.112;8.606;2023-11-19T11:04:21;15.50;99.90
10411;DHT22;5251;52.112;8.606;2023-11-19T11:06:48;15.50;99.90
10411;DHT22;5251;52.112;8.606;2023-11-19T11:09:14;15.60;99.90
10411;DHT22;5251;52.112;8.606;2023-11-19T11:11:40;15.60;99.90
10411;DHT22;5251;52.112;8.606;2023-11-19T11:14:12;15.60;99.90
10411;DHT22;5251;52.112;8.606;2023-11-19T11:16:42;15.60;99.90
10411;DHT22;5251;52.112;8.606;2023-11-19T11:19:09;15.60;99.90
10411;DHT22;5251;52.112;8.606;2023-11-19T11:21:36;15.70;99.90
10411;DHT22;5251;52.112;8.606;2023-11-19T11:26:59;15.70;99.90
10411;DHT22;5251;52.112;8.606;2023-11-19T11:29:44;15.60;99.90
10411;DHT22;5251;52.112;8.606;2023-11-19T11:32:36;15.70;99.90
10411;DHT22;5251;52.112;8.606;2023-11-19T11:37:46;15.70;99.90
10411;DHT22;5251;52.112;8.606;2023-11-19T11:40:16;15.60;99.90
10411;DHT22;5251;52.112;8.606;2023-11-19T11:42:46;15.60;99.90
10411;DHT22;5251;52.112;8.606;2023-11-19T11:45:13;15.50;99.90
10411;DHT22;5251;52.112;8.606;2023-11-19T11:50:15;15.50;99.90
10411;DHT22;5251;52.112;8.606;2023-11-19T11:55:28;15.60;99.90
10411;DHT22;5251;52.112;8.606;2023-11-19T11:57:54;15.60;99.90
10411;DHT22;5251;52.112;8.606;2023-11-19T12:03:02;15.70;99.90
10411;DHT22;5251;52.112;8.606;2023-11-19T12:05:29;15.70;99.90
10411;DHT22;5251;52.112;8.606;2023-11-19T12:10:21;15.70;99.90
10411;DHT22;5251;52.112;8.606;2023-11-19T12:12:47;15.70;99.90
10411;DHT22;5251;52.112;8.606;2023-11-19T12:15:13;15.60;99.90
10411;DHT22;5251;52.112;8.606;2023-11-19T12:17:47;15.60;99.90
10411;DHT22;5251;52.112;8.606;2023-11-19T12:20:15;15.60;99.90
10411;DHT22;5251;52.112;8.606;2023-11-19T12:22:45;15.60;99.90
10411;DHT22;5251;52.112;8.606;2023-11-19T12:25:12;15.60;99.90
10411;DHT22;5251;52.112;8.606;2023-11-19T12:27:47;15.60;99.90
10411;DHT22;5251;52.112;8.606;2023-11-19T12:30:24;15.60;99.90
10411;DHT22;5251;52.112;8.606;2023-11-19T12:32:50;15.60;99.90
10411;DHT22;5251;52.112;8.606;2023-11-19T12:35:15;15.60;99.90
10411;DHT22;5251;52.112;8.606;2023-11-19T12:37:42;15.60;99.90
10411;DHT22;5251;52.112;8.606;2023-11-19T12:40:21;15.60;99.90
10411;DHT22;5251;52.112;8.606;2023-11-19T12:42:51;15.60;99.90
10411;DHT22;5251;52.112;8.606;2023-11-19T12:45:18;15.70;99.90
10411;DHT22;5251;52.112;8.606;2023-11-19T12:47:45;15.70;99.90
10411;DHT22;5251;52.112;8.606;2023-11-19T12:50:14;15.70;99.90
10411;DHT22;5251;52.112;8.606;2023-11-19T12:52:40;15.70;99.90
10411;DHT22;5251;52.112;8.606;2023-11-19T12:55:27;15.60;99.90
10411;DHT22;5251;52.112;8.606;2023-11-19T12:57:53;15.60;99.90
10411;DHT22;5251;52.112;8.606;2023-11-19T13:00:24;15.60;99.90
10411;DHT22;5251;52.112;8.606;2023-11-19T13:02:55;15.60;99.90
10411;DHT22;5251;52.112;8.606;2023-11-19T13:05:28;15.60;99.90
10411;DHT22;5251;52.112;8.606;2023-11-19T13:08:04;15.60;99.90
10411;DHT22;5251;52.112;8.606;2023-11-19T13:10:34;15.60;99.90
10411;DHT22;5251;52.112;8.606;2023-11-19T13:13:15;15.60;99.90
10411;DHT22;5251;52.112;8.606;2023-11-19T13:15:41;15.60;99.90
10411;DHT22;5251;52.112;8.606;2023-11-19T13:18:06;15.60;99.90
10411;DHT22;5251;52.112;8.606;2023-11-19T13:20:32;15.50;99.90
10411;DHT22;5251;52.112;8.606;2023-11-19T13:23:05;15.60;99.90
10411;DHT22;5251;52.112;8.606;2023-11-19T13:25:32;15.60;99.90
10411;DHT22;5251;52.112;8.606;2023-11-19T13:27:58;15.60;99.90
10411;DHT22;5251;52.112;8.606;2023-11-19T13:30:25;15.60;99.90
10411;DHT22;5251;52.112;8.606;2023-11-19T13:32:51;15.60;99.90
10411;DHT22;5251;52.112;8.606;2023-11-19T13:35:18;15.60;99.90
10411;DHT22;5251;52.112;8.606;2023-11-19T13:37:44;15.70;99.90
10411;DHT22;5251;52.112;8.606;2023-11-19T13:40:10;15.60;99.90
10411;DHT22;5251;52.112;8.606;2023-11-19T13:42:41;15.70;99.90
10411;DHT22;5251;52.112;8.606;2023-11-19T13:45:11;15.70;99.90
10411;DHT22;5251;52.112;8.606;2023-11-19T13:47:42;15.60;99.90
10411;DHT22;5251;52.112;8.606;2023-11-19T13:50:13;15.70;99.90
10411;DHT22;5251;52.112;8.606;2023-11-19T13:52:41;15.70;99.90
10411;DHT22;5251;52.112;8.606;2023-11-19T13:55:08;15.70;99.90
10411;DHT22;5251;52.112;8.606;2023-11-19T13:57:37;15.70;99.90
10411;DHT22;5251;52.112;8.606;2023-11-19T14:00:05;15.70;99.90
10411;DHT22;5251;52.112;8.606;2023-11-19T14:02:32;15.80;99.90
10411;DHT22;5251;52.112;8.606;2023-11-19T14:04:58;15.70;99.80
10411;DHT22;5251;52.112;8.606;2023-11-19T14:07:23;15.70;99.70
10411;DHT22;5251;52.112;8.606;2023-11-19T14:09:49;15.70;99.80
10411;DHT22;5251;52.112;8.606;2023-11-19T14:12:15;15.70;99.60
10411;DHT22;5251;52.112;8.606;2023-11-19T14:14:41;15.60;99.30
10411;DHT22;5251;52.112;8.606;2023-11-19T14:17:07;15.60;99.60
10411;DHT22;5251;52.112;8.606;2023-11-19T14:19:33;15.50;99.60
10411;DHT22;5251;52.112;8.606;2023-11-19T14:21:59;15.50;99.70
10411;DHT22;5251;52.112;8.606;2023-11-19T14:24:25;15.50;99.60
10411;DHT22;5251;52.112;8.606;2023-11-19T14:26:51;15.50;99.70
10411;DHT22;5251;52.112;8.606;2023-11-19T14:29:17;15.40;99.80
10411;DHT22;5251;52.112;8.606;2023-11-19T14:31:42;15.40;99.90
10411;DHT22;5251;52.112;8.606;2023-11-19T14:34:08;15.40;99.90
10411;DHT22;5251;52.112;8.606;2023-11-19T14:36:34;15.30;99.90
10411;DHT22;5251;52.112;8.606;2023-11-19T14:39:00;15.30;99.90
10411;DHT22;5251;52.112;8.606;2023-11-19T14:41:26;15.30;99.90
10411;DHT22;5251;52.112;8.606;2023-11-19T14:43:51;15.30;99.90
10411;DHT22;5251;52.112;8.606;2023-11-19T14:46:17;15.30;99.90
10411;DHT22;5251;52.112;8.606;2023-11-19T14:48:43;15.30;99.90
10411;DHT22;5251;52.112;8.606;2023-11-19T14:51:09;15.30;99.90
10411;DHT22;5251;52.112;8.606;2023-11-19T14:53:34;15.30;99.90
10411;DHT22;5251;52.112;8.606;2023-11-19T14:56:00;15.30;99.90
10411;DHT22;5251;52.112;8.606;2023-11-19T14:58:26;15.20;99.90
10411;DHT22;5251;52.112;8.606;2023-11-19T15:00:52;15.20;99.90
10411;DHT22;5251;52.112;8.606;2023-11-19T15:03:18;15.20;99.90
10411;DHT22;5251;52.112;8.606;2023-11-19T15:05:47;15.20;99.90
10411;DHT22;5251;52.112;8.606;2023-11-19T15:08:13;15.20;99.90
10411;DHT22;5251;52.112;8.606;2023-11-19T15:10:42;15.20;99.90
10411;DHT22;5251;52.112;8.606;2023-11-19T15:13:07;15.10;99.90
10411;DHT22;5251;52.112;8.606;2023-11-19T15:15:34;15.00;99.90
10411;DHT22;5251;52.112;8.606;2023-11-19T15:18:00;15.00;99.90
10411;DHT22;5251;52.112;8.606;2023-11-19T15:20:26;14.90;99.90
10411;DHT22;5251;52.112;8.606;2023-11-19T15:22:55;14.90;99.90
10411;DHT22;5251;52.112;8.606;2023-11-19T15:25:21;14.90;99.90
10411;DHT22;5251;52.112;8.606;2023-11-19T15:27:48;14.90;99.90
10411;DHT22;5251;52.112;8.606;2023-11-19T15:30:13;14.90;99.90
10411;DHT22;5251;52.112;8.606;2023-11-19T15:32:39;14.90;99.90
10411;DHT22;5251;52.112;8.606;2023-11-19T15:35:06;14.80;99.90
10411;DHT22;5251;52.112;8.606;2023-11-19T15:37:32;14.80;99.90
10411;DHT22;5251;52.112;8.606;2023-11-19T15:39:58;14.70;99.90
10411;DHT22;5251;52.112;8.606;2023-11-19T15:42:24;14.60;99.90
10411;DHT22;5251;52.112;8.606;2023-11-19T15:44:49;14.70;99.90
10411;DHT22;5251;52.112;8.606;2023-11-19T15:47:15;14.70;99.90
10411;DHT22;5251;52.112;8.606;2023-11-19T15:49:41;14.60;99.90
10411;DHT22;5251;52.112;8.606;2023-11-19T15:52:07;14.60;99.90
10411;DHT22;5251;52.112;8.606;2023-11-19T15:54:32;14.60;99.90
10411;DHT22;5251;52.112;8.606;2023-11-19T15:56:59;14.60;99.90
10411;DHT22;5251;52.112;8.606;2023-11-19T15:59:26;14.60;99.90
10411;DHT22;5251;52.112;8.606;2023-11-19T16:01:52;14.60;99.90